Time;durP1;ratioP1;P1;durP2;ratioP2;P2;SDS_P1;SDS_P2;PMS_P1;PMS_P2;Temp;Humidity;BMP_temperature;BMP_pressure;BME280_temperature;BME280_humidity;BME280_pressure;Samples;Min_cycle;Max_cycle;Signal;HPM_P1;HPM_P2
2021/06/03 00:02:19;;;;;;;2.85;1.60;;;21.60;61.20;;;;;;5094798;28;20031;-78
2021/06/03 00:04:44;;;;;;;4.32;2.03;;;21.60;61.60;;;;;;5113446;28;20375;-78
2021/06/03 00:07:12;;;;;;;3.15;1.88;;;21.50;62.30;;;;;;5074883;28;20028;-78
2021/06/03 00:09:38;;;;;;;5.18;2.10;;;21.40;62.50;;;;;;5099299;28;20473;-78
2021/06/03 00:12:09;;;;;;;5.25;1.80;;;21.40;62.70;;;;;;5073234;28;20115;-78
2021/06/03 00:14:35;;;;;;;2.67;2.10;;;21.40;63.00;;;;;;5111711;28;20031;-78
2021/06/03 00:17:02;;;;;;;3.00;1.90;;;21.40;63.00;;;;;;5113159;28;21715;-79
2021/06/03 00:19:27;;;;;;;3.28;2.35;;;21.40;63.10;;;;;;5115122;28;20028;-79
2021/06/03 00:21:54;;;;;;;4.55;2.25;;;21.40;63.30;;;;;;5099191;28;20523;-79
2021/06/03 00:24:20;;;;;;;2.78;1.95;;;21.40;63.50;;;;;;5092888;28;20115;-79
2021/06/03 00:26:46;;;;;;;3.25;1.88;;;21.40;64.40;;;;;;5099042;28;20126;-79
2021/06/03 00:29:14;;;;;;;2.72;2.10;;;21.40;63.90;;;;;;5114909;28;20036;-79
2021/06/03 00:31:40;;;;;;;6.00;2.33;;;21.40;64.00;;;;;;5117251;28;20032;-79
2021/06/03 00:34:05;;;;;;;3.40;2.13;;;21.30;64.30;;;;;;5099054;28;20028;-79
2021/06/03 00:36:31;;;;;;;5.35;1.90;;;21.30;65.10;;;;;;5117311;28;20434;-79
2021/06/03 00:38:57;;;;;;;4.35;2.10;;;21.30;64.50;;;;;;5098928;28;20027;-79
2021/06/03 00:41:22;;;;;;;3.10;2.50;;;21.20;64.50;;;;;;5089937;28;20027;-79
2021/06/03 00:43:48;;;;;;;4.32;2.28;;;21.30;64.70;;;;;;5114950;28;20024;-79
2021/06/03 00:46:14;;;;;;;4.95;2.28;;;21.20;65.00;;;;;;5117096;28;20507;-79
2021/06/03 00:48:40;;;;;;;3.42;1.83;;;21.20;65.10;;;;;;5110910;28;20050;-79
2021/06/03 00:51:08;;;;;;;2.83;2.05;;;21.20;65.20;;;;;;5098714;28;20051;-79
2021/06/03 00:53:36;;;;;;;5.68;2.10;;;21.20;65.40;;;;;;5065635;28;20039;-79
2021/06/03 00:56:04;;;;;;;6.53;2.50;;;21.10;65.50;;;;;;5096755;28;20024;-79
2021/06/03 00:58:30;;;;;;;5.13;2.47;;;21.10;65.70;;;;;;5096072;28;20075;-79
2021/06/03 01:00:56;;;;;;;3.47;2.25;;;21.00;65.80;;;;;;5088684;28;20049;-79
2021/06/03 01:03:24;;;;;;;4.70;2.47;;;21.00;66.00;;;;;;5116777;28;20031;-79
2021/06/03 01:05:59;;;;;;;4.20;2.47;;;21.00;66.20;;;;;;5098364;28;20054;-79
2021/06/03 01:08:29;;;;;;;5.25;2.67;;;20.90;66.50;;;;;;5114197;28;20032;-79
2021/06/03 01:11:03;;;;;;;3.55;2.45;;;20.80;66.80;;;;;;5098652;28;20039;-79
2021/06/03 01:13:41;;;;;;;3.13;2.67;;;20.80;67.10;;;;;;5098510;28;20031;-79
2021/06/03 01:16:08;;;;;;;5.10;2.53;;;20.70;67.40;;;;;;5098461;28;20038;-79
2021/06/03 01:18:37;;;;;;;3.22;2.83;;;20.70;67.60;;;;;;5097974;28;20046;-79
2021/06/03 01:21:16;;;;;;;4.15;2.42;;;20.70;67.90;;;;;;5098269;28;20020;-79
2021/06/03 01:24:06;;;;;;;5.07;2.63;;;20.70;68.20;;;;;;5114572;28;20107;-79
2021/06/03 01:26:32;;;;;;;3.55;2.65;;;20.60;68.40;;;;;;5116573;28;20023;-78
2021/06/03 01:28:59;;;;;;;6.50;2.50;;;20.60;68.50;;;;;;5105646;28;20072;-78
2021/06/03 01:31:24;;;;;;;4.10;2.60;;;20.50;68.70;;;;;;5090805;28;20027;-79
2021/06/03 01:33:50;;;;;;;3.08;2.33;;;20.50;68.90;;;;;;5116021;28;20093;-79
2021/06/03 01:36:16;;;;;;;5.45;2.92;;;20.50;69.00;;;;;;5093858;28;20048;-79
2021/06/03 01:38:42;;;;;;;6.72;2.85;;;20.50;69.20;;;;;;5101909;28;20376;-78
2021/06/03 01:41:10;;;;;;;7.60;3.20;;;20.50;69.40;;;;;;5097204;28;20030;-78
2021/06/03 01:43:39;;;;;;;7.67;2.90;;;20.50;69.60;;;;;;5097540;28;20110;-78
2021/06/03 01:46:06;;;;;;;8.48;3.00;;;20.50;69.60;;;;;;5115350;28;20095;-78
2021/06/03 01:48:32;;;;;;;6.15;2.75;;;20.50;69.80;;;;;;5088958;28;20110;-78
2021/06/03 01:51:02;;;;;;;4.50;3.05;;;20.50;69.90;;;;;;5096100;28;20042;-78
2021/06/03 01:53:29;;;;;;;9.52;2.78;;;20.40;70.00;;;;;;5110355;28;20448;-79
2021/06/03 01:56:00;;;;;;;4.45;2.70;;;20.40;70.10;;;;;;5097212;28;20039;-79
2021/06/03 01:58:26;;;;;;;13.10;3.10;;;20.40;70.20;;;;;;5115225;28;20499;-78
2021/06/03 02:00:52;;;;;;;4.30;2.40;;;20.40;70.30;;;;;;5115421;28;20078;-78
2021/06/03 02:03:25;;;;;;;4.43;2.70;;;20.40;70.40;;;;;;5113134;28;20019;-76
2021/06/03 02:05:51;;;;;;;5.13;2.65;;;20.40;70.70;;;;;;5114712;28;20115;-78
2021/06/03 02:08:16;;;;;;;6.88;2.88;;;20.30;70.70;;;;;;5095585;28;20034;-78
2021/06/03 02:10:43;;;;;;;3.03;2.72;;;20.30;70.90;;;;;;5116142;28;20396;-78
2021/06/03 02:13:18;;;;;;;4.75;2.67;;;20.20;71.00;;;;;;5089006;28;20110;-78
2021/06/03 02:16:16;;;;;;;5.55;2.58;;;20.20;71.40;;;;;;5097260;28;20084;-78
2021/06/03 02:19:06;;;;;;;4.13;2.80;;;20.20;71.70;;;;;;5113559;28;20430;-78
2021/06/03 02:21:36;;;;;;;2.95;2.67;;;20.10;71.80;;;;;;5111849;28;20680;-78
2021/06/03 02:24:04;;;;;;;4.00;2.60;;;20.00;71.90;;;;;;5109282;28;20024;-78
2021/06/03 02:26:31;;;;;;;6.10;2.85;;;20.00;72.10;;;;;;5096683;28;20067;-78
2021/06/03 02:28:57;;;;;;;4.35;2.88;;;20.00;72.10;;;;;;5114637;28;20093;-78
2021/06/03 02:31:23;;;;;;;5.22;2.90;;;19.90;72.30;;;;;;5114727;28;20140;-78
2021/06/03 02:33:49;;;;;;;4.03;2.92;;;19.90;72.50;;;;;;5112813;28;20023;-78
2021/06/03 02:36:16;;;;;;;3.13;2.78;;;19.90;72.70;;;;;;5070739;28;20040;-78
2021/06/03 02:38:42;;;;;;;6.72;2.75;;;19.90;72.90;;;;;;5095853;28;20452;-78
2021/06/03 02:41:09;;;;;;;3.25;2.63;;;19.90;72.90;;;;;;5112745;28;20062;-78
2021/06/03 02:43:37;;;;;;;3.58;3.00;;;19.90;73.00;;;;;;5078347;28;20055;-78
2021/06/03 02:46:03;;;;;;;4.60;2.90;;;19.90;73.10;;;;;;5089654;28;20073;-78
2021/06/03 02:48:29;;;;;;;4.38;2.78;;;19.90;73.10;;;;;;5096160;28;20111;-78
2021/06/03 02:50:55;;;;;;;6.88;2.90;;;19.90;73.20;;;;;;5114570;28;20103;-78
2021/06/03 02:53:21;;;;;;;5.93;2.78;;;19.90;73.30;;;;;;5096153;28;20035;-78
2021/06/03 02:55:47;;;;;;;4.60;2.85;;;19.80;73.40;;;;;;5086379;28;20024;-78
2021/06/03 02:58:13;;;;;;;5.45;2.85;;;19.90;73.50;;;;;;5110721;28;20394;-78
2021/06/03 03:00:39;;;;;;;6.93;3.05;;;19.80;73.60;;;;;;5095763;28;20118;-78
2021/06/03 03:03:06;;;;;;;6.80;3.15;;;19.90;73.80;;;;;;5113736;28;20182;-78
2021/06/03 03:05:33;;;;;;;3.78;2.88;;;19.90;73.80;;;;;;5095233;28;20384;-78
2021/06/03 03:07:58;;;;;;;3.67;2.53;;;19.90;73.80;;;;;;5069822;28;20032;-78
2021/06/03 03:10:33;;;;;;;3.78;2.88;;;19.90;73.80;;;;;;5093121;28;20091;-78
2021/06/03 03:12:59;;;;;;;3.25;2.85;;;19.90;74.00;;;;;;5089805;28;20023;-78
2021/06/03 03:15:26;;;;;;;3.55;3.05;;;19.90;73.80;;;;;;5095479;28;20364;-78
2021/06/03 03:17:52;;;;;;;4.82;3.10;;;19.90;73.80;;;;;;5108537;28;20036;-78
2021/06/03 03:20:21;;;;;;;5.60;3.03;;;19.90;74.20;;;;;;5113634;28;20387;-78
2021/06/03 03:22:47;;;;;;;3.30;2.80;;;19.90;74.10;;;;;;5105541;28;20031;-78
2021/06/03 03:25:15;;;;;;;6.10;3.53;;;19.90;74.00;;;;;;5086388;28;20062;-78
2021/06/03 03:27:42;;;;;;;4.18;3.20;;;19.90;74.10;;;;;;5095082;28;20020;-78
2021/06/03 03:30:09;;;;;;;4.95;3.42;;;19.90;74.00;;;;;;5091513;28;20438;-78
2021/06/03 03:32:35;;;;;;;5.82;3.33;;;20.00;74.10;;;;;;5113030;28;20048;-78
2021/06/03 03:35:02;;;;;;;3.72;3.20;;;20.00;74.30;;;;;;5083390;28;20440;-78
2021/06/03 03:37:28;;;;;;;5.63;3.00;;;20.00;74.20;;;;;;5094541;28;20031;-78
2021/06/03 03:39:55;;;;;;;3.67;3.30;;;20.00;74.00;;;;;;5111437;28;20040;-78
2021/06/03 03:42:22;;;;;;;5.68;2.92;;;20.00;73.90;;;;;;5094945;28;20027;-78
2021/06/03 03:44:47;;;;;;;4.53;3.10;;;20.00;73.90;;;;;;5110571;28;20028;-78
2021/06/03 03:47:13;;;;;;;4.72;3.20;;;20.00;73.90;;;;;;5113466;28;20057;-78
2021/06/03 03:49:38;;;;;;;4.85;3.40;;;20.00;73.90;;;;;;5113476;28;20049;-78
2021/06/03 03:52:05;;;;;;;6.32;3.33;;;20.00;73.90;;;;;;5112775;28;20408;-78
2021/06/03 03:54:30;;;;;;;5.82;3.03;;;20.00;73.90;;;;;;5094551;28;20024;-78
2021/06/03 03:56:56;;;;;;;3.60;3.22;;;20.00;73.90;;;;;;5113492;28;20038;-78
2021/06/03 03:59:23;;;;;;;7.80;3.33;;;20.00;74.00;;;;;;5113177;28;20089;-78
2021/06/03 04:01:52;;;;;;;6.45;3.10;;;20.00;74.10;;;;;;5113364;28;20069;-78
2021/06/03 04:04:19;;;;;;;8.48;2.83;;;20.00;74.00;;;;;;5112926;28;20367;-78
2021/06/03 04:06:45;;;;;;;3.40;3.10;;;20.00;74.00;;;;;;5095952;28;20028;-78
2021/06/03 04:09:10;;;;;;;4.72;3.10;;;20.00;73.90;;;;;;5111645;28;20036;-78
2021/06/03 04:11:36;;;;;;;6.22;2.90;;;20.10;73.90;;;;;;5113209;28;20019;-78
2021/06/03 04:14:01;;;;;;;7.53;3.10;;;20.10;73.70;;;;;;5109520;28;20036;-78
2021/06/03 04:16:27;;;;;;;5.75;2.97;;;20.10;73.70;;;;;;5113347;28;20106;-78
2021/06/03 04:18:53;;;;;;;5.75;3.08;;;20.20;73.70;;;;;;5104690;28;20111;-78
2021/06/03 04:21:19;;;;;;;4.78;3.30;;;20.20;73.60;;;;;;5078132;28;20055;-78
2021/06/03 04:23:45;;;;;;;12.05;3.00;;;20.20;73.40;;;;;;5094913;28;20024;-78
2021/06/03 04:26:11;;;;;;;3.42;2.65;;;20.20;73.40;;;;;;5083497;28;20027;-78
2021/06/03 04:28:37;;;;;;;8.23;2.90;;;20.30;73.40;;;;;;5082993;28;20032;-78
2021/06/03 04:31:03;;;;;;;7.07;3.03;;;20.40;73.30;;;;;;5098765;28;20046;-78
2021/06/03 04:33:28;;;;;;;6.45;3.05;;;20.40;73.20;;;;;;5084952;28;20429;-78
2021/06/03 04:35:54;;;;;;;5.35;3.17;;;20.40;73.00;;;;;;5111820;28;20060;-78
2021/06/03 04:38:20;;;;;;;5.55;2.85;;;20.50;72.90;;;;;;5103465;28;20102;-78
2021/06/03 04:40:46;;;;;;;3.67;2.47;;;20.50;72.90;;;;;;5105606;28;20024;-78
2021/06/03 04:43:11;;;;;;;3.63;2.75;;;20.50;72.90;;;;;;5089450;28;20436;-78
2021/06/03 04:45:37;;;;;;;3.17;2.88;;;20.50;72.80;;;;;;5112298;28;20024;-79
2021/06/03 04:48:08;;;;;;;9.15;3.28;;;20.50;72.80;;;;;;5107999;28;20565;-79
2021/06/03 04:50:36;;;;;;;6.50;3.35;;;20.50;72.90;;;;;;5112243;28;20031;-79
2021/06/03 04:53:02;;;;;;;5.20;4.03;;;20.50;72.90;;;;;;5112286;28;20031;-79
2021/06/03 04:55:28;;;;;;;4.50;3.17;;;20.50;73.00;;;;;;5110086;28;20106;-79
2021/06/03 04:57:54;;;;;;;4.10;3.70;;;20.50;73.10;;;;;;5112967;28;20200;-79
2021/06/03 05:00:28;;;;;;;7.15;3.90;;;20.50;73.30;;;;;;5108149;28;20024;-79
2021/06/03 05:02:55;;;;;;;6.82;3.95;;;20.50;73.40;;;;;;5074642;28;20024;-79
2021/06/03 05:05:21;;;;;;;8.23;3.90;;;20.50;73.70;;;;;;5094240;28;20024;-78
2021/06/03 05:07:47;;;;;;;3.60;3.30;;;20.50;73.00;;;;;;5093968;28;20024;-78
2021/06/03 05:10:14;;;;;;;5.57;3.78;;;20.60;72.90;;;;;;5115833;28;20501;-76
2021/06/03 05:12:40;;;;;;;5.40;3.25;;;20.60;72.80;;;;;;5094258;28;20032;-76
2021/06/03 05:15:07;;;;;;;6.45;3.88;;;20.70;72.50;;;;;;5113947;28;20023;-76
2021/06/03 05:17:34;;;;;;;5.93;3.85;;;20.80;72.30;;;;;;5100033;28;20039;-75
2021/06/03 05:19:59;;;;;;;5.43;3.38;;;20.90;72.20;;;;;;5113934;28;20038;-76
2021/06/03 05:22:25;;;;;;;4.38;3.17;;;21.00;72.00;;;;;;5113450;28;20027;-76
2021/06/03 05:24:51;;;;;;;5.93;3.33;;;21.00;71.90;;;;;;5114001;28;20032;-76
2021/06/03 05:27:16;;;;;;;5.75;3.30;;;21.10;72.10;;;;;;5114475;28;20475;-76
2021/06/03 05:29:42;;;;;;;7.15;3.90;;;21.10;72.20;;;;;;5113224;28;20483;-75
2021/06/03 05:32:08;;;;;;;4.65;3.65;;;21.10;72.10;;;;;;5113913;28;20024;-75
2021/06/03 05:34:34;;;;;;;5.72;3.80;;;21.20;72.00;;;;;;5113939;28;20028;-75
2021/06/03 05:37:00;;;;;;;6.93;3.47;;;21.30;72.00;;;;;;5111425;28;20032;-76
2021/06/03 05:39:25;;;;;;;9.25;3.30;;;21.30;72.00;;;;;;5113703;28;20030;-76
2021/06/03 05:41:51;;;;;;;7.25;3.85;;;21.40;72.00;;;;;;5113534;28;20591;-76
2021/06/03 05:44:17;;;;;;;5.03;3.22;;;21.40;72.20;;;;;;5111111;28;20544;-76
2021/06/03 05:46:43;;;;;;;9.30;3.72;;;21.40;72.50;;;;;;5113711;28;20078;-76
2021/06/03 05:49:10;;;;;;;6.03;3.28;;;21.40;72.80;;;;;;5114911;28;20391;-76
2021/06/03 05:51:37;;;;;;;8.90;3.97;;;21.40;72.50;;;;;;5095249;28;20039;-76
2021/06/03 05:54:03;;;;;;;9.15;3.83;;;21.40;72.10;;;;;;5108334;28;20028;-76
2021/06/03 05:56:29;;;;;;;7.20;3.58;;;21.40;72.50;;;;;;5111419;28;20031;-76
2021/06/03 05:58:56;;;;;;;9.85;3.80;;;21.40;72.80;;;;;;5115358;28;20047;-76
2021/06/03 06:01:22;;;;;;;7.50;3.60;;;21.40;72.90;;;;;;5115970;28;20016;-78
2021/06/03 06:06:32;;;;;;;5.05;3.33;;;21.50;73.00;;;;;;5109972;28;20020;-78
2021/06/03 06:09:00;;;;;;;9.95;3.80;;;21.50;73.10;;;;;;5095730;28;20024;-78
2021/06/03 06:11:28;;;;;;;11.13;3.75;;;21.60;72.80;;;;;;5109465;28;20872;-78
2021/06/03 06:13:54;;;;;;;7.38;3.55;;;21.60;72.70;;;;;;5094617;28;20377;-77
2021/06/03 06:16:20;;;;;;;7.93;4.35;;;21.70;72.60;;;;;;5099050;28;20113;-77
2021/06/03 06:18:46;;;;;;;5.22;3.65;;;21.80;72.70;;;;;;5095415;28;20387;-78
2021/06/03 06:21:16;;;;;;;6.07;3.80;;;21.80;72.50;;;;;;5090551;28;20042;-77
2021/06/03 06:23:42;;;;;;;4.75;3.78;;;21.90;72.60;;;;;;5115635;28;20357;-78
2021/06/03 06:26:09;;;;;;;10.40;3.70;;;22.00;72.90;;;;;;5114760;28;20035;-77
2021/06/03 06:28:35;;;;;;;14.18;3.75;;;22.10;72.70;;;;;;5115663;28;20095;-77
2021/06/03 06:31:03;;;;;;;6.80;3.30;;;22.20;72.60;;;;;;5096302;28;20031;-77
2021/06/03 06:33:29;;;;;;;12.20;3.95;;;22.20;72.50;;;;;;5097374;28;20066;-77
2021/06/03 06:35:54;;;;;;;7.35;3.42;;;22.40;72.50;;;;;;5081643;28;20063;-77
2021/06/03 06:38:22;;;;;;;5.38;3.17;;;22.50;72.50;;;;;;5077341;28;20024;-77
2021/06/03 06:40:49;;;;;;;5.72;3.92;;;22.60;72.40;;;;;;5079045;28;20036;-79
2021/06/03 06:43:16;;;;;;;10.70;3.88;;;22.60;72.20;;;;;;5077303;28;20024;-81
2021/06/03 06:45:42;;;;;;;8.82;3.75;;;22.60;72.50;;;;;;5082740;28;20020;-80
2021/06/03 06:48:09;;;;;;;8.38;3.95;;;22.60;72.80;;;;;;5113376;28;20027;-80
2021/06/03 06:50:37;;;;;;;7.38;3.47;;;22.60;73.40;;;;;;5096423;28;20032;-80
2021/06/03 06:53:04;;;;;;;5.47;3.58;;;22.60;74.00;;;;;;5097076;28;20040;-80
2021/06/03 06:55:31;;;;;;;5.43;3.88;;;22.60;74.70;;;;;;5111589;28;20073;-79
2021/06/03 06:57:58;;;;;;;9.52;4.20;;;22.60;75.10;;;;;;5094546;28;20496;-80
2021/06/03 07:00:27;;;;;;;7.60;3.80;;;22.50;75.60;;;;;;5076883;28;20096;-80
2021/06/03 07:02:53;;;;;;;8.45;4.07;;;22.50;75.80;;;;;;5094497;28;20063;-82
2021/06/03 07:05:19;;;;;;;6.50;3.95;;;22.50;76.00;;;;;;5094510;28;20056;-82
2021/06/03 07:07:45;;;;;;;5.38;3.85;;;22.50;76.30;;;;;;5094523;28;20107;-82
2021/06/03 07:10:11;;;;;;;6.50;3.83;;;22.40;76.10;;;;;;5109117;28;20110;-82
2021/06/03 07:12:39;;;;;;;7.38;3.72;;;22.40;76.10;;;;;;5096803;28;20081;-81
2021/06/03 07:15:07;;;;;;;6.82;3.95;;;22.40;76.50;;;;;;5103029;28;20111;-80
2021/06/03 07:17:33;;;;;;;7.20;3.88;;;22.40;76.30;;;;;;5076175;28;20034;-81
2021/06/03 07:19:58;;;;;;;4.78;3.88;;;22.50;76.20;;;;;;5076081;28;20032;-82
2021/06/03 07:22:24;;;;;;;5.65;4.05;;;22.50;76.50;;;;;;5094150;28;20028;-81
2021/06/03 07:24:50;;;;;;;5.10;3.83;;;22.60;76.20;;;;;;5076127;28;20028;-80
2021/06/03 07:27:15;;;;;;;7.07;4.50;;;22.70;76.20;;;;;;5059199;28;20020;-81
2021/06/03 07:29:41;;;;;;;15.95;4.18;;;22.80;75.50;;;;;;5076165;28;20032;-81
2021/06/03 07:32:08;;;;;;;6.85;3.90;;;23.10;74.90;;;;;;5104233;28;20030;-81
2021/06/03 07:34:34;;;;;;;6.85;3.72;;;23.40;73.80;;;;;;5114375;28;20030;-81
2021/06/03 07:37:00;;;;;;;6.05;3.95;;;23.70;73.00;;;;;;5112379;28;20476;-82
2021/06/03 07:39:26;;;;;;;6.32;4.10;;;24.00;71.60;;;;;;5085319;28;20043;-82
2021/06/03 07:41:52;;;;;;;8.35;3.88;;;24.20;70.60;;;;;;5075654;28;20419;-81
2021/06/03 07:44:18;;;;;;;7.47;4.22;;;24.30;69.90;;;;;;5099320;28;20024;-80
2021/06/03 07:46:44;;;;;;;6.90;4.15;;;24.30;69.90;;;;;;5077616;28;20020;-80
2021/06/03 07:49:13;;;;;;;9.25;4.22;;;24.30;70.10;;;;;;5093717;28;20105;-80
2021/06/03 07:51:39;;;;;;;;;;;24.30;70.10;;;;;;5113170;28;20032;-80
2021/06/03 07:54:05;;;;;;;8.63;4.72;;;24.30;70.10;;;;;;5095854;28;19923;-80
2021/06/03 07:56:30;;;;;;;7.57;4.03;;;24.20;70.20;;;;;;5113703;28;20036;-80
2021/06/03 07:58:56;;;;;;;11.52;4.38;;;24.20;70.20;;;;;;5096952;28;20587;-80
2021/06/03 08:01:21;;;;;;;9.80;4.55;;;24.20;70.10;;;;;;5107001;28;20511;-80
2021/06/03 08:03:47;;;;;;;6.28;3.90;;;24.30;70.30;;;;;;5113902;28;20020;-80
2021/06/03 08:06:13;;;;;;;8.55;4.90;;;24.30;70.40;;;;;;5114021;28;20071;-80
2021/06/03 08:08:38;;;;;;;8.93;4.10;;;24.30;70.40;;;;;;5113999;28;20432;-80
2021/06/03 08:11:05;;;;;;;9.15;4.55;;;24.30;70.60;;;;;;5100487;28;20590;-80
2021/06/03 08:13:31;;;;;;;6.60;4.18;;;24.20;71.60;;;;;;5110557;28;20102;-80
2021/06/03 08:15:57;;;;;;;6.25;4.22;;;24.10;71.40;;;;;;5113894;28;20077;-80
2021/06/03 08:18:23;;;;;;;6.20;4.28;;;24.10;71.60;;;;;;5113776;28;20023;-80
2021/06/03 08:20:56;;;;;;;5.93;4.20;;;24.00;71.20;;;;;;5095553;28;20032;-80
2021/06/03 08:23:22;;;;;;;5.90;4.18;;;24.00;71.10;;;;;;5114176;28;20032;-80
2021/06/03 08:25:48;;;;;;;10.55;4.50;;;24.00;71.10;;;;;;5104830;28;20024;-80
2021/06/03 08:28:15;;;;;;;7.30;4.53;;;23.90;71.00;;;;;;5092948;28;20024;-80
2021/06/03 08:30:41;;;;;;;5.53;3.80;;;23.90;71.00;;;;;;5074954;28;20036;-80
2021/06/03 08:33:08;;;;;;;7.15;3.80;;;23.80;71.10;;;;;;5093045;28;20484;-80
2021/06/03 08:35:34;;;;;;;6.57;3.90;;;23.80;71.20;;;;;;5092959;28;20035;-80
2021/06/03 08:38:04;;;;;;;9.93;4.70;;;23.70;71.60;;;;;;5074995;28;20035;-80
2021/06/03 08:40:32;;;;;;;9.85;4.20;;;23.60;71.80;;;;;;5105413;28;20370;-80
2021/06/03 08:43:00;;;;;;;8.65;4.40;;;23.50;72.60;;;;;;5117442;28;20110;-80
2021/06/03 08:45:29;;;;;;;12.32;4.78;;;23.40;73.30;;;;;;5117450;28;20086;-80
2021/06/03 08:47:56;;;;;;;6.35;4.28;;;23.30;74.30;;;;;;5108659;28;20026;-80
2021/06/03 08:50:23;;;;;;;10.88;5.50;;;23.20;75.30;;;;;;5079048;28;20040;-80
2021/06/03 08:52:51;;;;;;;10.32;5.32;;;23.10;76.40;;;;;;5096825;28;20051;-80
2021/06/03 08:58:06;;;;;;;8.27;5.28;;;22.80;78.00;;;;;;5104555;28;20043;-78
2021/06/03 09:00:34;;;;;;;8.85;5.85;;;22.70;78.80;;;;;;5091424;28;20504;-78
2021/06/03 09:03:00;;;;;;;10.13;6.40;;;22.60;79.60;;;;;;5078765;28;20020;-78
2021/06/03 09:05:26;;;;;;;7.65;6.15;;;22.50;80.30;;;;;;5101147;28;20024;-78
2021/06/03 09:07:53;;;;;;;9.20;5.75;;;22.40;80.70;;;;;;5117213;28;20549;-78
2021/06/03 09:10:29;;;;;;;9.60;6.22;;;22.30;81.90;;;;;;5116853;28;20027;-77
2021/06/03 09:13:12;;;;;;;14.98;7.38;;;22.20;82.10;;;;;;5102169;28;20028;-77
2021/06/03 09:15:40;;;;;;;18.30;6.93;;;22.20;82.80;;;;;;5116664;28;20020;-78
2021/06/03 09:18:09;;;;;;;11.88;6.65;;;22.10;82.90;;;;;;5114667;28;20040;-77
2021/06/03 09:20:36;;;;;;;10.88;5.72;;;22.10;83.30;;;;;;5115424;28;20024;-87
2021/06/03 09:23:02;;;;;;;8.57;5.30;;;22.00;83.40;;;;;;5102968;28;20028;-87
2021/06/03 09:25:40;;;;;;;9.25;5.50;;;22.00;83.40;;;;;;5105270;28;20022;-86
2021/06/03 09:28:33;;;;;;;10.00;5.07;;;22.00;83.80;;;;;;5101239;28;20403;-87
2021/06/03 09:31:09;;;;;;;10.55;5.15;;;22.00;83.60;;;;;;5102266;28;20460;-87
2021/06/03 09:33:40;;;;;;;11.82;6.38;;;22.00;84.00;;;;;;5084852;28;20027;-86
2021/06/03 09:36:07;;;;;;;11.88;5.93;;;21.90;84.40;;;;;;5103853;28;20042;-86
2021/06/03 09:38:34;;;;;;;12.80;5.63;;;22.00;85.20;;;;;;5110122;28;20028;-79
2021/06/03 09:41:00;;;;;;;8.32;5.45;;;22.00;85.20;;;;;;5103236;28;20019;-78
2021/06/03 09:43:26;;;;;;;8.43;6.53;;;22.10;84.90;;;;;;5115666;28;20031;-78
2021/06/03 09:45:54;;;;;;;11.57;6.43;;;22.20;84.60;;;;;;5104084;28;20028;-78
2021/06/03 09:48:38;;;;;;;11.48;8.02;;;22.30;84.40;;;;;;5113705;28;20061;-78
2021/06/03 09:51:30;;;;;;;12.63;8.45;;;22.40;84.40;;;;;;5095181;28;20031;-78
2021/06/03 09:53:59;;;;;;;12.80;7.13;;;22.40;84.60;;;;;;5077834;28;20028;-78
2021/06/03 09:56:45;;;;;;;;;;;22.40;84.70;;;;;;5085116;28;20093;-78
2021/06/03 09:59:21;;;;;;;11.73;8.88;;;22.40;84.40;;;;;;5100539;28;19915;-78
2021/06/03 10:01:52;;;;;;;15.65;8.88;;;22.40;84.90;;;;;;5098414;28;20027;-78
2021/06/03 10:04:23;;;;;;;12.85;10.00;;;22.50;85.10;;;;;;5098074;28;20020;-78
2021/06/03 10:06:57;;;;;;;11.60;8.77;;;22.60;86.00;;;;;;5092105;28;20020;-78
2021/06/03 10:09:34;;;;;;;11.05;8.68;;;22.70;86.00;;;;;;5095630;28;20484;-78
2021/06/03 10:11:59;;;;;;;14.77;8.10;;;22.80;85.90;;;;;;5083593;28;20024;-78
2021/06/03 10:14:27;;;;;;;8.85;7.88;;;23.00;85.10;;;;;;5097896;28;20115;-78
2021/06/03 10:16:52;;;;;;;13.23;8.55;;;23.10;85.60;;;;;;5108417;28;20423;-78
2021/06/03 10:19:23;;;;;;;10.50;8.15;;;23.30;84.70;;;;;;5092300;28;20054;-78
2021/06/03 10:22:09;;;;;;;14.10;8.05;;;23.50;84.50;;;;;;5096651;28;20496;-78
2021/06/03 10:24:48;;;;;;;11.80;8.88;;;23.70;83.90;;;;;;5115310;28;20055;-78
2021/06/03 10:27:14;;;;;;;14.63;9.57;;;23.90;83.60;;;;;;5110322;28;20023;-78
2021/06/03 10:29:40;;;;;;;10.95;9.52;;;24.00;83.30;;;;;;5115606;28;20035;-77
2021/06/03 10:32:07;;;;;;;14.60;8.77;;;24.00;82.80;;;;;;5115431;28;20508;-78
2021/06/03 10:34:33;;;;;;;13.18;8.57;;;24.10;81.70;;;;;;5115604;28;20043;-77
2021/06/03 10:36:59;;;;;;;10.63;7.93;;;24.10;82.50;;;;;;5097137;28;20038;-78
2021/06/03 10:39:27;;;;;;;9.80;7.40;;;24.10;81.10;;;;;;5115033;28;20054;-77
2021/06/03 10:41:53;;;;;;;11.23;7.50;;;24.10;80.80;;;;;;5115241;28;20031;-82
2021/06/03 10:44:19;;;;;;;10.85;7.55;;;24.30;80.40;;;;;;5098065;28;20031;-82
2021/06/03 10:46:44;;;;;;;11.00;8.70;;;24.40;79.70;;;;;;5076975;28;20044;-81
2021/06/03 10:49:15;;;;;;;11.65;9.02;;;24.50;79.20;;;;;;5099558;28;20028;-82
2021/06/03 10:51:41;;;;;;;11.25;9.35;;;24.60;78.70;;;;;;5095014;28;20103;-81
2021/06/03 10:54:07;;;;;;;12.45;9.63;;;24.80;78.30;;;;;;5080951;28;20071;-80
2021/06/03 10:56:32;;;;;;;15.23;9.30;;;25.00;78.70;;;;;;5098825;28;20131;-82
2021/06/03 10:59:00;;;;;;;11.15;8.50;;;25.40;77.40;;;;;;5092307;28;20048;-82
2021/06/03 11:01:26;;;;;;;13.05;9.15;;;25.60;75.70;;;;;;5096544;28;20023;-82
2021/06/03 11:04:00;;;;;;;14.13;9.20;;;25.70;75.10;;;;;;5062877;28;20098;-82
2021/06/03 11:06:28;;;;;;;8.85;7.82;;;25.80;75.20;;;;;;5114828;28;20019;-81
2021/06/03 11:09:02;;;;;;;12.70;9.07;;;25.90;75.40;;;;;;5114980;28;20019;-83
2021/06/03 11:11:34;;;;;;;11.63;7.90;;;26.20;73.70;;;;;;5096752;28;20020;-83
2021/06/03 11:14:03;;;;;;;12.30;7.85;;;26.30;72.90;;;;;;5115104;28;20026;-82
2021/06/03 11:16:35;;;;;;;14.63;8.63;;;26.40;73.10;;;;;;5114796;28;20041;-83
2021/06/03 11:19:00;;;;;;;9.73;7.90;;;26.50;71.70;;;;;;5096382;28;20027;-83
2021/06/03 11:21:32;;;;;;;10.75;8.05;;;26.40;72.60;;;;;;5098632;28;20495;-82
2021/06/03 11:24:24;;;;;;;11.85;7.40;;;26.40;73.20;;;;;;5094155;28;20039;-82
2021/06/03 11:26:53;;;;;;;10.27;7.45;;;26.60;72.20;;;;;;5085956;28;20036;-82
2021/06/03 11:29:22;;;;;;;8.57;7.32;;;26.70;71.40;;;;;;5094056;28;20019;-83
2021/06/03 11:32:06;;;;;;;10.25;6.68;;;26.90;70.90;;;;;;5094260;28;20101;-83
2021/06/03 11:34:38;;;;;;;11.27;8.43;;;27.20;70.40;;;;;;5094165;28;20024;-83
2021/06/03 11:37:25;;;;;;;10.05;7.45;;;27.30;69.30;;;;;;5094174;28;20465;-83
2021/06/03 11:40:16;;;;;;;11.07;7.55;;;27.10;68.80;;;;;;5079472;28;20374;-82
2021/06/03 11:42:46;;;;;;;10.85;7.80;;;26.90;68.70;;;;;;5094055;28;20141;-82
2021/06/03 11:45:17;;;;;;;9.70;7.65;;;26.70;69.30;;;;;;5093849;28;20020;-82
2021/06/03 11:47:43;;;;;;;10.75;8.07;;;26.70;69.70;;;;;;5093873;28;20099;-82
2021/06/03 11:50:12;;;;;;;15.07;8.77;;;26.70;69.40;;;;;;5095793;28;20028;-82
2021/06/03 11:52:38;;;;;;;12.40;8.85;;;26.60;69.10;;;;;;5094185;28;20097;-82
2021/06/03 11:55:08;;;;;;;11.02;9.82;;;26.40;69.90;;;;;;5111846;28;20031;-82
2021/06/03 11:57:36;;;;;;;11.38;9.07;;;26.40;71.20;;;;;;5113991;28;20028;-82
2021/06/03 12:00:09;;;;;;;14.10;9.25;;;26.30;72.00;;;;;;5095802;28;20028;-82
2021/06/03 12:02:45;;;;;;;11.38;8.93;;;26.40;72.00;;;;;;5093526;28;20028;-82
2021/06/03 12:05:10;;;;;;;12.32;8.68;;;26.30;71.90;;;;;;5093702;28;20065;-82
2021/06/03 12:07:54;;;;;;;12.65;9.07;;;26.30;72.40;;;;;;5110271;28;20410;-81
2021/06/03 12:10:41;;;;;;;11.27;9.15;;;26.30;72.40;;;;;;5095788;28;20028;-82
2021/06/03 12:13:20;;;;;;;12.85;9.43;;;26.30;72.00;;;;;;5113592;28;20024;-82
2021/06/03 12:15:46;;;;;;;9.77;8.77;;;26.30;72.30;;;;;;5094865;28;20373;-82
2021/06/03 12:18:13;;;;;;;9.77;8.45;;;26.40;72.50;;;;;;5111908;28;20032;-81
2021/06/03 12:20:39;;;;;;;11.85;8.55;;;26.70;71.80;;;;;;5093255;28;20473;-82
2021/06/03 12:23:07;;;;;;;12.73;8.65;;;26.90;70.30;;;;;;5103193;28;20104;-82
2021/06/03 12:25:38;;;;;;;10.65;8.48;;;27.00;68.90;;;;;;5086315;28;20074;-82
2021/06/03 12:28:05;;;;;;;13.95;8.88;;;27.00;68.10;;;;;;5095627;28;20070;-82
2021/06/03 12:30:34;;;;;;;11.00;8.32;;;27.10;68.00;;;;;;5113375;28;20028;-82
2021/06/03 12:32:59;;;;;;;9.07;7.03;;;27.10;68.80;;;;;;5113685;28;20023;-82
2021/06/03 12:35:37;;;;;;;8.02;7.13;;;27.20;68.00;;;;;;5113913;28;20669;-82
2021/06/03 12:38:05;;;;;;;8.63;6.63;;;27.10;67.30;;;;;;5113820;28;20020;-82
2021/06/03 12:40:31;;;;;;;9.25;6.68;;;27.00;66.90;;;;;;5113289;28;20043;-81
2021/06/03 12:43:08;;;;;;;10.57;6.85;;;26.90;67.20;;;;;;5113649;28;20028;-81
2021/06/03 12:45:38;;;;;;;8.93;6.90;;;26.80;67.90;;;;;;5113562;28;20024;-82
2021/06/03 12:48:10;;;;;;;8.63;6.68;;;26.70;68.70;;;;;;5113706;28;20016;-82
2021/06/03 12:50:44;;;;;;;8.50;6.43;;;26.60;68.30;;;;;;5113679;28;20099;-82
2021/06/03 12:53:13;;;;;;;8.65;6.78;;;26.60;68.80;;;;;;5095571;28;20031;-81
2021/06/03 12:55:40;;;;;;;9.23;7.00;;;26.70;68.80;;;;;;5094301;28;20028;-78
2021/06/03 12:58:08;;;;;;;11.40;6.68;;;27.00;68.70;;;;;;5111015;28;20526;-78